Terminal Aerodrome Forecast
Issued by NWS

Home | Current Version | Previous Version | Text Only | Print | Product List | Glossary On
Versions: 1 2 3 4 5 6 7 8 9 10 11 12 13 14 15
000
FTUS42 KTBW 020525
TAFLAL
TAF
KLAL 020525Z 0206/0306 VRB03KT P6SM SCT250
     FM020900 VRB03KT 3SM BR SCT005 SCT250
     FM021300 08004KT P6SM SCT020 BKN250
     FM021500 15004KT P6SM SCT030 BKN250
     FM021900 31007KT P6SM VCTS SCT040CB BKN250
     FM030100 VRB04KT P6SM SCT250=

USA.gov is the U.S. government's official web portal to all federal, state and local government web resources and services.